createdAt,value
2023-04-15T00:02:00.705Z,98379.63
2023-04-15T00:04:31.745Z,98391.38
2023-04-15T00:07:03.070Z,98386.63
2023-04-15T00:09:31.730Z,98382.66
2023-04-15T00:12:00.734Z,98388.13
2023-04-15T00:14:29.400Z,98390.06
2023-04-15T00:16:58.604Z,98389.91
2023-04-15T00:19:27.426Z,98389.00
2023-04-15T00:21:56.722Z,98388.84
2023-04-15T00:24:26.756Z,98388.31
2023-04-15T00:26:55.629Z,98394.94
2023-04-15T00:29:24.882Z,98397.19
2023-04-15T00:31:53.821Z,98387.38
2023-04-15T00:34:22.662Z,98390.84
2023-04-15T00:36:52.592Z,98397.19
2023-04-15T00:39:22.834Z,98402.09
2023-04-15T00:41:54.369Z,98400.53
2023-04-15T00:44:23.199Z,98404.56
2023-04-15T00:46:53.227Z,98404.06
2023-04-15T00:49:22.366Z,98408.38
2023-04-15T00:51:51.497Z,98399.75
2023-04-15T00:54:20.394Z,98390.88
2023-04-15T00:56:49.384Z,98401.13
2023-04-15T00:59:20.017Z,98402.91
2023-04-15T01:01:49.330Z,98403.47
2023-04-15T01:04:18.181Z,98406.91
2023-04-15T01:06:47.314Z,98398.88
2023-04-15T01:09:16.422Z,98399.22
2023-04-15T01:11:45.930Z,98402.78
2023-04-15T01:14:15.139Z,98409.06
2023-04-15T01:16:45.749Z,98412.59
2023-04-15T01:19:18.028Z,98405.47
2023-04-15T01:21:47.128Z,98406.25
2023-04-15T01:24:20.072Z,98408.50
2023-04-15T01:26:51.120Z,98407.53
2023-04-15T01:29:20.010Z,98405.25
2023-04-15T01:31:53.389Z,98413.44
2023-04-15T01:34:40.462Z,98404.81
2023-04-15T01:37:28.552Z,98404.88
2023-04-15T01:39:58.184Z,98416.50
2023-04-15T01:42:28.866Z,98418.59
2023-04-15T01:44:58.717Z,98412.06
2023-04-15T01:47:29.133Z,98417.84
2023-04-15T01:49:59.218Z,98420.63
2023-04-15T01:52:29.555Z,98423.28
2023-04-15T01:55:00.078Z,98422.63
2023-04-15T01:57:31.722Z,98419.56
2023-04-15T02:00:01.547Z,98423.34
2023-04-15T02:02:32.032Z,98427.03
2023-04-15T02:05:02.298Z,98432.13
2023-04-15T02:07:33.367Z,98423.03
2023-04-15T02:10:05.910Z,98418.81
2023-04-15T02:12:40.685Z,98413.38
2023-04-15T02:15:11.344Z,98428.16
2023-04-15T02:17:45.832Z,98421.47
2023-04-15T02:20:18.801Z,98419.41
2023-04-15T02:22:49.511Z,98429.06
2023-04-15T02:25:20.350Z,98428.69
2023-04-15T02:27:52.291Z,98420.88
2023-04-15T02:30:24.019Z,98426.16
2023-04-15T02:32:54.195Z,98416.53
2023-04-15T02:35:27.910Z,98415.63
2023-04-15T02:37:59.137Z,98417.78
2023-04-15T02:40:29.289Z,98412.72
2023-04-15T02:43:01.162Z,98413.63
2023-04-15T02:45:31.888Z,98419.38
2023-04-15T02:48:06.647Z,98412.16
2023-04-15T02:50:37.921Z,98399.06
2023-04-15T02:53:08.377Z,98397.44
2023-04-15T02:55:39.284Z,98408.06
2023-04-15T02:58:11.041Z,98411.69
2023-04-15T03:00:40.803Z,98413.53
2023-04-15T03:03:11.202Z,98412.59
2023-04-15T03:05:41.069Z,98421.22
2023-04-15T03:08:11.459Z,98415.63
2023-04-15T03:10:41.303Z,98415.06
2023-04-15T03:13:12.721Z,98415.88
2023-04-15T03:15:43.331Z,98418.66
2023-04-15T03:18:13.732Z,98429.59
2023-04-15T03:20:44.315Z,98422.41
2023-04-15T03:23:14.590Z,98429.66
2023-04-15T03:25:45.955Z,98429.19
2023-04-15T03:28:18.139Z,98429.44
2023-04-15T03:30:48.251Z,98436.56
2023-04-15T03:33:18.603Z,98438.91
2023-04-15T03:35:48.659Z,98443.38
2023-04-15T03:38:18.822Z,98451.09
2023-04-15T03:40:48.700Z,98458.50
2023-04-15T03:43:20.292Z,98455.84
2023-04-15T03:45:50.381Z,98457.88
2023-04-15T03:48:21.253Z,98464.88
2023-04-15T03:50:51.084Z,98473.28
2023-04-15T03:53:22.684Z,98468.13
2023-04-15T03:55:52.574Z,98474.69
2023-04-15T03:58:24.369Z,98480.31
2023-04-15T04:00:54.937Z,98475.13
2023-04-15T04:03:25.422Z,98486.22
2023-04-15T04:05:55.479Z,98496.59
2023-04-15T04:08:25.774Z,98500.75
2023-04-15T04:10:56.198Z,98504.28
2023-04-15T04:13:27.829Z,98501.03
2023-04-15T04:15:58.223Z,98505.84
2023-04-15T04:18:28.738Z,98510.88
2023-04-15T04:20:58.681Z,98507.75
2023-04-15T04:23:28.951Z,98510.53
2023-04-15T04:25:58.875Z,98516.78
2023-04-15T04:28:30.496Z,98516.00
2023-04-15T04:31:00.639Z,98513.84
2023-04-15T04:33:30.994Z,98513.72
2023-04-15T04:36:00.941Z,98516.38
2023-04-15T04:38:31.155Z,98511.19
2023-04-15T04:41:01.721Z,98521.84
2023-04-15T04:43:33.446Z,98515.59
2023-04-15T04:46:03.357Z,98515.97
2023-04-15T04:48:33.626Z,98524.94
2023-04-15T04:51:03.693Z,98517.91
2023-04-15T04:53:33.929Z,98518.81
2023-04-15T04:56:03.865Z,98522.72
2023-04-15T04:58:35.619Z,98526.53
2023-04-15T05:01:05.849Z,98523.53
2023-04-15T05:03:37.038Z,98528.22
2023-04-15T05:06:08.893Z,98531.84
2023-04-15T05:08:40.331Z,98530.66
2023-04-15T05:11:10.395Z,98526.72
2023-04-15T05:13:42.263Z,98527.19
2023-04-15T05:16:12.473Z,98529.81
2023-04-15T05:18:42.684Z,98529.66
2023-04-15T05:21:12.830Z,98521.88
2023-04-15T05:23:42.956Z,98524.38
2023-04-15T05:26:12.787Z,98531.31
2023-04-15T05:28:44.300Z,98524.88
2023-04-15T05:31:14.627Z,98527.38
2023-04-15T05:33:45.379Z,98537.84
2023-04-15T05:36:15.266Z,98524.69
2023-04-15T05:38:45.571Z,98520.22
2023-04-15T05:41:18.370Z,98537.69
2023-04-15T05:43:51.470Z,98537.16
2023-04-15T05:46:21.506Z,98522.13
2023-04-15T05:48:51.814Z,98529.13
2023-04-15T05:51:21.855Z,98528.81
2023-04-15T05:53:52.023Z,98535.19
2023-04-15T05:56:22.256Z,98527.03
2023-04-15T05:58:54.064Z,98527.34
2023-04-15T06:01:24.200Z,98525.28
2023-04-15T06:03:54.693Z,98526.84
2023-04-15T06:06:25.356Z,98518.63
2023-04-15T06:08:55.940Z,98510.16
2023-04-15T06:11:26.771Z,98520.34
2023-04-15T06:13:58.313Z,98519.91
2023-04-15T06:16:29.315Z,98522.50
2023-04-15T06:19:01.282Z,98523.75
2023-04-15T06:21:31.612Z,98527.03
2023-04-15T06:24:03.056Z,98524.16
2023-04-15T06:26:32.851Z,98518.50
2023-04-15T06:29:04.554Z,98522.78
2023-04-15T06:31:34.486Z,98523.22
2023-04-15T06:34:05.350Z,98515.41
2023-04-15T06:36:35.624Z,98512.56
2023-04-15T06:39:05.791Z,98506.25
2023-04-15T06:41:36.041Z,98510.38
2023-04-15T06:44:07.722Z,98509.25
2023-04-15T06:46:37.676Z,98501.41
2023-04-15T06:49:08.557Z,98502.56
2023-04-15T06:51:38.954Z,98505.75
2023-04-15T06:54:08.972Z,98512.38
2023-04-15T06:56:39.056Z,98510.41
2023-04-15T06:59:10.664Z,98509.09
2023-04-15T07:01:41.025Z,98519.69
2023-04-15T07:04:12.709Z,98515.44
2023-04-15T07:06:42.991Z,98509.84
2023-04-15T07:09:13.609Z,98514.81
2023-04-15T07:11:43.569Z,98509.47
2023-04-15T07:14:15.100Z,98521.53
2023-04-15T07:16:44.952Z,98520.09
2023-04-15T07:19:15.741Z,98528.72
2023-04-15T07:21:45.794Z,98525.56
2023-04-15T07:24:19.727Z,98530.34
2023-04-15T07:26:52.553Z,98518.88
2023-04-15T07:29:24.513Z,98522.53
2023-04-15T07:31:54.627Z,98519.25
2023-04-15T07:34:25.192Z,98527.28
2023-04-15T07:36:55.043Z,98518.22
2023-04-15T07:39:25.208Z,98518.38
2023-04-15T07:41:54.931Z,98528.69
2023-04-15T07:44:26.919Z,98523.84
2023-04-15T07:46:56.922Z,98530.22
2023-04-15T07:49:27.213Z,98542.06
2023-04-15T07:51:57.880Z,98534.19
2023-04-15T07:54:28.618Z,98522.38
2023-04-15T07:56:59.132Z,98531.44
2023-04-15T07:59:33.506Z,98524.47
2023-04-15T08:02:04.490Z,98533.50
2023-04-15T08:04:35.388Z,98520.78
2023-04-15T08:07:06.530Z,98515.59
2023-04-15T08:09:37.097Z,98517.25
2023-04-15T08:12:09.500Z,98518.78
2023-04-15T08:14:41.282Z,98523.41
2023-04-15T08:17:11.195Z,98520.56
2023-04-15T08:19:42.530Z,98516.34
2023-04-15T08:22:17.884Z,98512.63
2023-04-15T08:24:48.961Z,98517.47
2023-04-15T08:27:19.011Z,98515.72
2023-04-15T08:29:50.750Z,98516.22
2023-04-15T08:32:21.381Z,98516.78
2023-04-15T08:34:51.972Z,98528.16
2023-04-15T08:37:23.096Z,98526.28
2023-04-15T08:39:53.377Z,98524.03
2023-04-15T08:42:29.297Z,98524.09
2023-04-15T08:45:02.485Z,98515.84
2023-04-15T08:47:32.967Z,98532.63
2023-04-15T08:50:05.570Z,98531.09
2023-04-15T08:52:35.702Z,98538.44
2023-04-15T08:55:29.176Z,98531.84
2023-04-15T08:57:59.125Z,98546.47
2023-04-15T09:00:30.930Z,98533.97
2023-04-15T09:03:01.332Z,98544.81
2023-04-15T09:05:34.591Z,98540.75
2023-04-15T09:08:05.711Z,98552.63
2023-04-15T09:10:36.492Z,98554.94
2023-04-15T09:13:07.033Z,98560.31
2023-04-15T09:15:41.623Z,98549.84
2023-04-15T09:18:13.815Z,98565.53
2023-04-15T09:20:44.295Z,98564.84
2023-04-15T09:23:15.691Z,98561.75
2023-04-15T09:25:46.749Z,98554.88
2023-04-15T09:28:16.661Z,98552.63
2023-04-15T09:30:49.812Z,98553.16
2023-04-15T09:33:20.717Z,98554.06
2023-04-15T09:36:01.539Z,98555.00
2023-04-15T09:38:31.859Z,98557.19
2023-04-15T09:41:02.700Z,98554.81
2023-04-15T09:43:40.528Z,98554.03
2023-04-15T09:46:12.573Z,98557.38
2023-04-15T09:48:42.650Z,98546.50
2023-04-15T09:51:13.148Z,98552.03
2023-04-15T09:53:44.280Z,98549.84
2023-04-15T09:56:15.400Z,98546.03
2023-04-15T09:58:46.835Z,98550.13
2023-04-15T10:01:18.632Z,98560.84
2023-04-15T10:03:49.225Z,98555.47
2023-04-15T10:06:19.894Z,98550.94
2023-04-15T10:08:49.989Z,98557.94
2023-04-15T10:11:21.242Z,98549.91
2023-04-15T10:13:52.223Z,98558.28
2023-04-15T10:16:28.594Z,98557.47
2023-04-15T10:19:02.836Z,98556.16
2023-04-15T10:21:34.212Z,98546.31
2023-04-15T10:24:05.140Z,98549.78
2023-04-15T10:26:36.511Z,98547.81
2023-04-15T10:29:06.936Z,98540.00
2023-04-15T10:31:39.831Z,98544.78
2023-04-15T10:34:10.926Z,98541.44
2023-04-15T10:36:41.321Z,98544.03
2023-04-15T10:39:45.098Z,98540.53
2023-04-15T10:42:17.432Z,98544.78
2023-04-15T10:44:51.930Z,98538.59
2023-04-15T10:47:24.767Z,98545.44
2023-04-15T10:50:00.496Z,98535.19
2023-04-15T10:52:31.340Z,98541.94
2023-04-15T10:55:05.540Z,98533.06
2023-04-15T10:57:40.975Z,98536.50
2023-04-15T11:00:15.701Z,98539.13
2023-04-15T11:02:49.182Z,98530.50
2023-04-15T11:05:20.088Z,98529.22
2023-04-15T11:07:53.223Z,98534.06
2023-04-15T11:10:55.003Z,98537.53
2023-04-15T11:13:30.614Z,98545.16
2023-04-15T11:16:02.778Z,98530.59
2023-04-15T11:18:35.868Z,98535.16
2023-04-15T11:21:08.235Z,98527.06
2023-04-15T11:23:41.306Z,98526.13
2023-04-15T11:26:12.714Z,98530.69
2023-04-15T11:28:44.914Z,98529.09
2023-04-15T11:31:17.915Z,98533.44
2023-04-15T11:33:56.688Z,98522.75
2023-04-15T11:36:30.277Z,98535.09
2023-04-15T11:39:01.228Z,98532.47
2023-04-15T11:41:31.774Z,98525.25
2023-04-15T11:44:02.352Z,98528.16
2023-04-15T11:46:33.262Z,98515.34
2023-04-15T11:49:05.225Z,98508.84
2023-04-15T11:51:35.812Z,98507.44
2023-04-15T11:54:05.186Z,98517.53
2023-04-15T11:56:34.216Z,98514.53
2023-04-15T11:59:03.493Z,98515.53
2023-04-15T12:01:36.538Z,98503.06
2023-04-15T12:04:12.941Z,98509.16
2023-04-15T12:06:41.998Z,98514.69
2023-04-15T12:09:13.324Z,98515.22
2023-04-15T12:11:47.522Z,98517.50
2023-04-15T12:14:26.878Z,98509.69
2023-04-15T12:16:58.497Z,98504.78
2023-04-15T12:19:30.227Z,98513.97
2023-04-15T12:22:02.434Z,98519.59
2023-04-15T12:24:33.884Z,98508.44
2023-04-15T12:27:06.992Z,98513.19
2023-04-15T12:29:38.845Z,98495.84
2023-04-15T12:32:09.581Z,98513.13
2023-04-15T12:34:41.531Z,98507.78
2023-04-15T12:37:12.035Z,98505.25
2023-04-15T12:39:43.329Z,98509.91
2023-04-15T12:42:13.079Z,98510.53
2023-04-15T12:44:42.496Z,98505.19
2023-04-15T12:47:12.112Z,98502.41
2023-04-15T12:49:42.937Z,98511.16
2023-04-15T12:52:12.138Z,98511.66
2023-04-15T12:54:41.246Z,98510.84
2023-04-15T12:57:09.930Z,98514.19
2023-04-15T12:59:38.894Z,98519.94
2023-04-15T13:02:08.257Z,98505.53
2023-04-15T13:04:37.547Z,98509.94
2023-04-15T13:07:07.577Z,98515.94
2023-04-15T13:09:36.704Z,98514.53
2023-04-15T13:12:05.965Z,98516.03
2023-04-15T13:14:35.739Z,98516.38
2023-04-15T13:17:08.994Z,98506.06
2023-04-15T13:19:38.207Z,98502.78
2023-04-15T13:22:08.945Z,98506.47
2023-04-15T13:24:39.281Z,98499.09
2023-04-15T13:27:08.455Z,98504.97
2023-04-15T13:29:37.939Z,98508.44
2023-04-15T13:32:07.036Z,98511.00
2023-04-15T13:34:36.064Z,98512.06
2023-04-15T13:37:09.172Z,98508.84
2023-04-15T13:39:38.227Z,98510.31
2023-04-15T13:42:07.890Z,98518.94
2023-04-15T13:44:36.809Z,98505.78
2023-04-15T13:47:06.125Z,98505.59
2023-04-15T13:49:35.068Z,98504.88
2023-04-15T13:52:03.966Z,98499.44
2023-04-15T13:54:37.772Z,98506.88
2023-04-15T13:57:06.899Z,98504.34
2023-04-15T13:59:36.170Z,98499.91
2023-04-15T14:02:05.002Z,98506.28
2023-04-15T14:04:34.427Z,98507.75
2023-04-15T14:07:05.197Z,98509.63
2023-04-15T14:09:36.626Z,98506.94
2023-04-15T14:12:06.135Z,98510.84
2023-04-15T14:14:35.147Z,98505.66
2023-04-15T14:17:04.242Z,98504.66
2023-04-15T14:19:34.197Z,98496.56
2023-04-15T14:22:03.531Z,98493.19
2023-04-15T14:24:32.688Z,98496.72
2023-04-15T14:27:02.873Z,98494.91
2023-04-15T14:29:32.044Z,98491.28
2023-04-15T14:32:04.455Z,98491.88
2023-04-15T14:34:41.902Z,98489.97
2023-04-15T14:37:10.764Z,98497.19
2023-04-15T14:39:39.841Z,98494.69
2023-04-15T14:42:10.194Z,98497.66
2023-04-15T14:44:39.250Z,98498.03
2023-04-15T14:47:07.994Z,98499.28
2023-04-15T14:49:36.954Z,98499.63
2023-04-15T14:52:05.795Z,98502.81
2023-04-15T14:54:34.826Z,98502.09
2023-04-15T14:57:03.456Z,98495.78
2023-04-15T14:59:33.843Z,98493.88
2023-04-15T15:02:02.632Z,98496.81
2023-04-15T15:04:33.492Z,98491.72
2023-04-15T15:07:02.624Z,98494.28
2023-04-15T15:09:32.880Z,98492.22
2023-04-15T15:12:03.254Z,98497.28
2023-04-15T15:14:33.569Z,98493.66
2023-04-15T15:17:02.317Z,98497.44
2023-04-15T15:19:31.370Z,98501.53
2023-04-15T15:22:00.052Z,98500.94
2023-04-15T15:24:29.067Z,98508.44
2023-04-15T15:26:58.253Z,98505.44
2023-04-15T15:29:27.408Z,98512.72
2023-04-15T15:31:57.981Z,98512.88
2023-04-15T15:34:27.170Z,98518.84
2023-04-15T15:36:57.281Z,98514.59
2023-04-15T15:39:26.252Z,98517.06
2023-04-15T15:41:55.020Z,98520.63
2023-04-15T15:44:24.432Z,98519.50
2023-04-15T15:46:53.320Z,98527.81
2023-04-15T15:49:25.352Z,98526.03
2023-04-15T15:51:54.002Z,98530.00
2023-04-15T15:54:23.006Z,98537.50
2023-04-15T15:56:51.751Z,98531.84
2023-04-15T15:59:20.801Z,98544.41
2023-04-15T16:01:50.562Z,98558.97
2023-04-15T16:04:19.888Z,98570.81
2023-04-15T16:06:50.033Z,98587.75
2023-04-15T16:09:19.165Z,98579.75
2023-04-15T16:11:47.806Z,98580.84
2023-04-15T16:14:16.795Z,98575.69
2023-04-15T16:16:46.085Z,98571.03
2023-04-15T16:19:15.322Z,98574.78
2023-04-15T16:21:44.655Z,98571.25
2023-04-15T16:24:15.358Z,98576.06
2023-04-15T16:26:43.994Z,98570.00
2023-04-15T16:29:12.857Z,98582.38
2023-04-15T16:31:41.713Z,98576.13
2023-04-15T16:34:11.269Z,98583.34
2023-04-15T16:36:40.619Z,98592.22
2023-04-15T16:39:09.528Z,98594.53
2023-04-15T16:41:39.535Z,98586.47
2023-04-15T16:44:09.169Z,98592.81
2023-04-15T16:46:40.321Z,98597.09
2023-04-15T16:49:10.101Z,98601.22
2023-04-15T16:51:38.783Z,98605.91
2023-04-15T16:54:07.753Z,98594.47
2023-04-15T16:56:36.660Z,98600.63
2023-04-15T16:59:07.077Z,98597.06
2023-04-15T17:01:36.122Z,98606.44
2023-04-15T17:04:05.819Z,98617.41
2023-04-15T17:06:34.636Z,98625.50
2023-04-15T17:09:03.982Z,98625.81
2023-04-15T17:11:33.262Z,98613.44
2023-04-15T17:14:03.848Z,98621.22
2023-04-15T17:16:34.307Z,98620.59
2023-04-15T17:19:03.607Z,98619.50
2023-04-15T17:21:39.543Z,98618.50
2023-04-15T17:24:10.181Z,98624.38
2023-04-15T17:26:47.147Z,98615.66
2023-04-15T17:29:16.355Z,98624.72
2023-04-15T17:31:50.801Z,98626.44
2023-04-15T17:34:49.521Z,98640.34
2023-04-15T17:37:39.296Z,98637.88
2023-04-15T17:40:28.350Z,98642.59
2023-04-15T17:43:16.895Z,98646.97
2023-04-15T17:46:07.484Z,98645.72
2023-04-15T17:48:57.598Z,98642.53
2023-04-15T17:51:46.719Z,98654.72
2023-04-15T17:54:35.705Z,98654.03
2023-04-15T17:57:25.277Z,98660.00
2023-04-15T18:00:14.965Z,98659.16
2023-04-15T18:03:03.930Z,98655.59
2023-04-15T18:05:54.680Z,98661.72
2023-04-15T18:08:43.597Z,98669.72
2023-04-15T18:11:33.754Z,98670.50
2023-04-15T18:14:33.576Z,98669.72
2023-04-15T18:17:23.216Z,98677.97
2023-04-15T18:20:12.900Z,98687.06
2023-04-15T18:22:43.696Z,98683.34
2023-04-15T18:25:12.683Z,98681.72
2023-04-15T18:27:41.490Z,98688.75
2023-04-15T18:30:12.094Z,98687.78
2023-04-15T18:32:41.120Z,98687.84
2023-04-15T18:35:10.861Z,98693.91
2023-04-15T18:37:39.717Z,98694.75
2023-04-15T18:40:11.172Z,98700.59
2023-04-15T18:42:39.767Z,98694.09
2023-04-15T18:45:09.703Z,98694.47
2023-04-15T18:47:38.589Z,98698.97
2023-04-15T18:50:08.949Z,98702.31
2023-04-15T18:52:37.734Z,98702.84
2023-04-15T18:55:07.519Z,98707.41
2023-04-15T18:57:42.584Z,98708.44
2023-04-15T19:00:15.997Z,98709.59
2023-04-15T19:02:45.070Z,98707.41
2023-04-15T19:05:14.194Z,98706.34
2023-04-15T19:07:42.966Z,98709.81
2023-04-15T19:10:12.331Z,98707.69
2023-04-15T19:12:42.550Z,98715.09
2023-04-15T19:15:12.132Z,98713.97
2023-04-15T19:17:41.085Z,98709.59
2023-04-15T19:20:10.856Z,98715.09
2023-04-15T19:22:39.794Z,98710.69
2023-04-15T19:25:09.240Z,98720.38
2023-04-15T19:27:39.577Z,98720.31
2023-04-15T19:30:10.969Z,98724.94
2023-04-15T19:32:39.953Z,98731.75
2023-04-15T19:35:11.411Z,98737.28
2023-04-15T19:37:40.770Z,98723.75
2023-04-15T19:40:10.704Z,98723.75
2023-04-15T19:42:39.476Z,98724.94
2023-04-15T19:45:10.735Z,98728.94
2023-04-15T19:47:39.772Z,98728.00
2023-04-15T19:50:11.956Z,98722.53
2023-04-15T19:52:41.046Z,98723.56
2023-04-15T19:55:11.097Z,98729.41
2023-04-15T19:57:39.855Z,98720.78
2023-04-15T20:00:11.541Z,98727.44
2023-04-15T20:02:40.323Z,98728.72
2023-04-15T20:05:11.038Z,98731.00
2023-04-15T20:07:42.514Z,98728.88
2023-04-15T20:10:13.259Z,98732.81
2023-04-15T20:12:51.476Z,98725.38
2023-04-15T20:15:24.140Z,98727.03
2023-04-15T20:17:52.991Z,98716.75
2023-04-15T20:20:22.351Z,98720.50
2023-04-15T20:22:52.774Z,98719.59
2023-04-15T20:25:21.798Z,98721.81
2023-04-15T20:27:50.856Z,98730.81
2023-04-15T20:30:20.143Z,98735.38
2023-04-15T20:32:50.258Z,98740.16
2023-04-15T20:35:19.887Z,98731.06
2023-04-15T20:37:50.135Z,98731.00
2023-04-15T20:40:19.272Z,98737.47
2023-04-15T20:42:48.159Z,98739.38
2023-04-15T20:45:17.497Z,98734.06
2023-04-15T20:47:46.370Z,98743.75
2023-04-15T20:50:16.753Z,98734.38
2023-04-15T20:52:45.337Z,98733.47
2023-04-15T20:55:14.410Z,98734.22
2023-04-15T20:57:43.092Z,98731.00
2023-04-15T21:00:13.051Z,98735.34
2023-04-15T21:02:41.867Z,98729.84
2023-04-15T21:05:11.086Z,98737.22
2023-04-15T21:07:41.468Z,98728.19
2023-04-15T21:10:11.129Z,98726.13
2023-04-15T21:12:41.150Z,98731.34
2023-04-15T21:15:11.108Z,98728.69
2023-04-15T21:17:39.855Z,98726.59
2023-04-15T21:20:09.921Z,98723.22
2023-04-15T21:22:40.503Z,98733.16
2023-04-15T21:25:10.469Z,98728.97
2023-04-15T21:27:39.250Z,98736.28
2023-04-15T21:30:09.121Z,98742.78
2023-04-15T21:32:37.992Z,98752.47
2023-04-15T21:35:08.291Z,98743.00
2023-04-15T21:37:37.558Z,98736.63
2023-04-15T21:40:09.819Z,98740.84
2023-04-15T21:42:38.552Z,98744.06
2023-04-15T21:45:08.324Z,98742.22
2023-04-15T21:48:06.093Z,98738.00
2023-04-15T21:50:25.991Z,98733.41
2023-04-15T21:52:54.822Z,98735.00
2023-04-15T21:55:25.454Z,98737.22
2023-04-15T21:57:54.077Z,98737.13
2023-04-15T22:00:23.250Z,98743.75
2023-04-15T22:02:52.145Z,98741.63
2023-04-15T22:05:21.462Z,98738.28
2023-04-15T22:07:50.270Z,98738.09
2023-04-15T22:10:19.666Z,98738.94
2023-04-15T22:12:49.771Z,98733.53
2023-04-15T22:15:18.662Z,98730.16
2023-04-15T22:17:47.674Z,98736.97
2023-04-15T22:20:17.180Z,98747.38
2023-04-15T22:22:45.839Z,98749.88
2023-04-15T22:25:16.093Z,98746.44
2023-04-15T22:27:44.702Z,98750.16
2023-04-15T22:30:15.252Z,98744.75
2023-04-15T22:32:44.063Z,98740.34
2023-04-15T22:35:13.020Z,98749.78
2023-04-15T22:37:41.595Z,98744.19
2023-04-15T22:40:11.473Z,98742.91
2023-04-15T22:42:40.100Z,98742.84
2023-04-15T22:45:10.197Z,98740.06
2023-04-15T22:47:40.396Z,98750.81
2023-04-15T22:50:10.350Z,98748.91
2023-04-15T22:52:39.201Z,98750.66
2023-04-15T22:55:09.380Z,98743.63
2023-04-15T22:57:37.934Z,98745.28
2023-04-15T23:00:08.884Z,98739.16
2023-04-15T23:02:37.793Z,98737.34
2023-04-15T23:05:13.181Z,98745.94
2023-04-15T23:07:42.127Z,98743.41
2023-04-15T23:10:11.432Z,98745.28
2023-04-15T23:12:40.072Z,98751.56
2023-04-15T23:15:10.099Z,98751.56
2023-04-15T23:17:38.705Z,98747.41
2023-04-15T23:20:09.881Z,98756.88
2023-04-15T23:22:38.662Z,98753.78
2023-04-15T23:25:08.391Z,98754.88
2023-04-15T23:27:37.223Z,98757.53
2023-04-15T23:30:07.425Z,98760.34
2023-04-15T23:32:36.045Z,98758.88
2023-04-15T23:35:05.513Z,98766.63
2023-04-15T23:37:35.658Z,98771.06
2023-04-15T23:40:05.140Z,98764.72
2023-04-15T23:42:33.870Z,98775.00
2023-04-15T23:45:02.704Z,98778.06
2023-04-15T23:47:32.182Z,98776.81
2023-04-15T23:50:01.626Z,98775.41
2023-04-15T23:52:30.376Z,98776.06
2023-04-15T23:55:01.401Z,98788.34
2023-04-15T23:57:30.177Z,98797.00
2023-04-15T23:59:59.181Z,98796.88
